Time;durP1;ratioP1;P1;durP2;ratioP2;P2;SDS_P1;SDS_P2;PMS_P1;PMS_P2;Temp;Humidity;BMP_temperature;BMP_pressure;BME280_temperature;BME280_humidity;BME280_pressure;Samples;Min_cycle;Max_cycle;Signal;HPM_P1;HPM_P2
2022/07/28 00:01:03;;;;;;;7.60;2.40;;;;;;;15.88;52.10;100564.29;106087;1273;24007;-78
2022/07/28 00:03:30;;;;;;;10.00;1.90;;;;;;;15.81;52.42;100559.51;106260;1273;22675;-79
2022/07/28 00:05:57;;;;;;;7.10;2.20;;;;;;;15.78;52.56;100559.92;106099;1273;25285;-79
2022/07/28 00:08:24;;;;;;;4.20;2.00;;;;;;;15.75;52.76;100559.84;105813;1275;22531;-79
2022/07/28 00:10:51;;;;;;;5.30;2.20;;;;;;;15.80;52.98;100559.88;106101;1274;25250;-79
2022/07/28 00:13:17;;;;;;;3.60;1.70;;;;;;;15.81;53.13;100561.63;106176;1275;25366;-76
2022/07/28 00:15:44;;;;;;;7.60;2.10;;;;;;;15.81;53.21;100562.69;106078;1273;24237;-81
2022/07/28 00:18:11;;;;;;;3.20;1.70;;;;;;;15.83;53.30;100565.13;105705;1278;25226;-78
2022/07/28 00:20:38;;;;;;;6.30;2.30;;;;;;;15.84;53.43;100569.52;105703;1278;22569;-79
2022/07/28 00:23:05;;;;;;;5.50;2.00;;;;;;;15.89;53.48;100569.40;105967;1278;22541;-79
2022/07/28 00:25:31;;;;;;;4.00;2.20;;;;;;;15.90;53.73;100568.66;105774;1278;22561;-79
2022/07/28 00:27:58;;;;;;;3.00;1.90;;;;;;;15.89;53.71;100570.44;105733;1278;22542;-80
2022/07/28 00:30:25;;;;;;;5.30;1.70;;;;;;;15.83;53.54;100573.65;106476;1278;25543;-78
2022/07/28 00:32:52;;;;;;;2.80;1.90;;;;;;;15.74;53.93;100572.45;105749;1278;22610;-79
2022/07/28 00:35:19;;;;;;;4.70;2.20;;;;;;;15.69;53.84;100573.15;105917;1276;24234;-78
2022/07/28 00:37:56;;;;;;;3.30;2.00;;;;;;;15.64;54.15;100575.40;105913;1276;24323;-80
2022/07/28 00:41:09;;;;;;;5.30;1.80;;;;;;;15.65;54.48;100576.81;106088;1275;22580;-80
2022/07/28 00:43:10;;;;;;;5.70;2.40;;;;;;;15.64;54.39;100575.05;106197;1275;22565;-79
2022/07/28 00:45:37;;;;;;;4.80;2.00;;;;;;;15.62;54.58;100577.41;105998;1276;23917;-80
2022/07/28 00:48:04;;;;;;;3.80;1.80;;;;;;;15.63;54.81;100579.34;106332;1275;25224;-75
2022/07/28 00:50:31;;;;;;;5.70;1.90;;;;;;;15.59;54.81;100576.61;106113;1275;24765;-81
2022/07/28 00:52:59;;;;;;;3.70;2.00;;;;;;;15.48;54.89;100577.06;106000;1277;22632;-79
2022/07/28 00:55:26;;;;;;;5.80;2.10;;;;;;;15.37;55.23;100578.06;105896;1276;22587;-80
2022/07/28 00:57:53;;;;;;;4.50;2.00;;;;;;;15.36;55.61;100580.58;106044;1275;22603;-77
2022/07/28 01:00:20;;;;;;;2.80;1.60;;;;;;;15.29;55.66;100583.05;106076;1274;22550;-81
2022/07/28 01:02:48;;;;;;;4.80;2.00;;;;;;;15.22;55.79;100582.00;105624;1279;22605;-79
2022/07/28 01:05:15;;;;;;;4.70;1.60;;;;;;;15.23;55.88;100578.61;105870;1278;22544;-79
2022/07/28 01:08:12;;;;;;;5.50;2.00;;;;;;;15.25;55.89;100578.73;105873;1279;24422;-76
2022/07/28 01:10:45;;;;;;;5.40;2.00;;;;;;;15.30;56.07;100583.76;105800;1278;22762;-80
2022/07/28 01:13:17;;;;;;;5.20;1.70;;;;;;;15.34;56.01;100585.92;105717;1281;22602;-79
2022/07/28 01:15:54;;;;;;;4.90;2.10;;;;;;;15.39;55.90;100583.88;105497;1281;24365;-79
2022/07/28 01:18:25;;;;;;;5.60;2.10;;;;;;;15.39;55.85;100584.76;105872;1278;25377;-79
2022/07/28 01:21:04;;;;;;;4.20;2.40;;;;;;;15.29;55.66;100584.13;105347;1281;23002;-81
2022/07/28 01:23:30;;;;;;;6.00;2.30;;;;;;;15.18;55.91;100591.66;105691;1281;22547;-80
2022/07/28 01:26:33;;;;;;;6.60;2.50;;;;;;;15.11;56.09;100595.40;105900;1281;24280;-79
2022/07/28 01:29:19;;;;;;;5.50;2.20;;;;;;;15.13;56.31;100590.19;105555;1281;24339;-82
2022/07/28 01:32:09;;;;;;;5.70;2.30;;;;;;;15.11;56.50;100589.38;105360;1281;22605;-80
2022/07/28 01:34:44;;;;;;;3.70;1.90;;;;;;;15.15;56.49;100585.54;105443;1284;22680;-81
2022/07/28 01:37:16;;;;;;;4.60;2.10;;;;;;;15.13;56.57;100583.27;105512;1284;22771;-78
2022/07/28 01:39:44;;;;;;;2.90;1.80;;;;;;;15.08;56.47;100585.00;105733;1280;25303;-80
2022/07/28 01:42:13;;;;;;;2.70;1.90;;;;;;;15.08;56.93;100583.40;105760;1278;24380;-76
2022/07/28 01:44:45;;;;;;;6.60;2.30;;;;;;;15.11;56.89;100584.05;105971;1278;24465;-79
2022/07/28 01:47:13;;;;;;;6.90;2.70;;;;;;;15.15;56.82;100584.48;105976;1279;23019;-80
2022/07/28 01:49:44;;;;;;;5.80;2.40;;;;;;;15.20;56.93;100580.62;105882;1282;22563;-81
2022/07/28 01:52:12;;;;;;;7.40;2.70;;;;;;;15.25;56.98;100580.31;106041;1276;22577;-79
2022/07/28 01:54:42;;;;;;;5.70;2.30;;;;;;;15.26;57.02;100576.22;106278;1274;25202;-80
2022/07/28 01:57:13;;;;;;;4.00;2.10;;;;;;;15.28;57.08;100576.17;106357;1275;23992;-76
2022/07/28 01:59:42;;;;;;;6.60;2.40;;;;;;;15.24;57.00;100577.16;106381;1274;23100;-79
2022/07/28 02:02:11;;;;;;;5.30;2.70;;;;;;;15.17;56.84;100577.67;106438;1274;24221;-74
2022/07/28 02:04:40;;;;;;;5.70;3.10;;;;;;;15.03;57.09;100585.84;106314;1276;24278;-81
2022/07/28 02:07:09;;;;;;;6.10;3.00;;;;;;;14.95;57.38;100585.86;106578;1277;23944;-79
2022/07/28 02:09:38;;;;;;;9.80;3.40;;;;;;;14.80;57.55;100585.66;106618;1275;22960;-77
2022/07/28 02:12:08;;;;;;;6.90;3.20;;;;;;;14.78;58.00;100591.89;106402;1275;22543;-81
2022/07/28 02:14:37;;;;;;;6.70;3.50;;;;;;;14.83;58.22;100592.34;106092;1275;22577;-83
2022/07/28 02:17:13;;;;;;;7.40;3.60;;;;;;;14.74;57.86;100591.29;106213;1275;22688;-81
2022/07/28 02:19:43;;;;;;;9.10;3.90;;;;;;;14.59;57.97;100590.36;106109;1275;24226;-82
2022/07/28 02:22:11;;;;;;;7.10;3.20;;;;;;;14.46;58.21;100594.38;106283;1274;22493;-74
2022/07/28 02:24:40;;;;;;;7.50;3.60;;;;;;;14.43;58.88;100593.54;106189;1274;25412;-80
2022/07/28 02:27:18;;;;;;;8.10;3.80;;;;;;;14.50;59.23;100593.21;106141;1278;23941;-81
2022/07/28 02:30:00;;;;;;;8.10;3.30;;;;;;;14.56;59.28;100591.52;106088;1276;23767;-77
2022/07/28 02:32:55;;;;;;;9.70;3.40;;;;;;;14.62;59.37;100595.08;105630;1281;23016;-81
2022/07/28 02:35:47;;;;;;;5.60;3.10;;;;;;;14.66;59.29;100600.13;105849;1281;22938;-80
2022/07/28 02:38:24;;;;;;;6.80;3.00;;;;;;;14.67;59.21;100597.64;105783;1281;22690;-78
2022/07/28 02:40:56;;;;;;;6.70;3.10;;;;;;;14.65;59.23;100597.50;105322;1287;25328;-79
2022/07/28 02:43:28;;;;;;;11.00;2.70;;;;;;;14.66;59.23;100596.77;105008;1290;23948;-80
2022/07/28 02:46:18;;;;;;;5.00;2.50;;;;;;;14.62;59.32;100596.33;104873;1288;24277;-79
2022/07/28 02:48:51;;;;;;;4.60;2.70;;;;;;;14.64;59.36;100596.30;104889;1287;25558;-80
2022/07/28 02:51:22;;;;;;;8.40;2.80;;;;;;;14.65;59.29;100594.66;105298;1281;22565;-80
2022/07/28 02:53:50;;;;;;;5.80;3.10;;;;;;;14.56;59.00;100592.73;105341;1284;22578;-80
2022/07/28 02:56:17;;;;;;;7.70;2.90;;;;;;;14.50;59.21;100601.55;105650;1281;22509;-79
2022/07/28 02:58:45;;;;;;;6.60;2.70;;;;;;;14.49;59.40;100608.48;105512;1278;25368;-80
2022/07/28 03:01:17;;;;;;;7.90;3.60;;;;;;;14.47;59.29;100618.09;106191;1274;24227;-82
2022/07/28 03:03:49;;;;;;;6.30;3.00;;;;;;;14.48;59.36;100621.08;106081;1275;22548;-81
2022/07/28 03:06:16;;;;;;;11.50;3.10;;;;;;;14.43;59.05;100623.52;106242;1274;22575;-78
2022/07/28 03:08:43;;;;;;;4.80;3.20;;;;;;;14.39;59.28;100624.82;106198;1274;22649;-78
2022/07/28 03:11:12;;;;;;;5.30;3.00;;;;;;;14.37;59.32;100626.46;106002;1274;25251;-81
2022/07/28 03:13:39;;;;;;;5.20;3.10;;;;;;;14.30;59.34;100620.77;106212;1274;25484;-79
2022/07/28 03:16:07;;;;;;;5.40;2.70;;;;;;;14.20;59.47;100617.77;105975;1274;23917;-80
2022/07/28 03:18:34;;;;;;;5.00;2.60;;;;;;;14.10;59.91;100620.10;105947;1274;25250;-80
2022/07/28 03:21:01;;;;;;;5.50;2.90;;;;;;;14.12;60.17;100622.36;106037;1274;22611;-82
2022/07/28 03:23:39;;;;;;;7.20;3.10;;;;;;;14.07;60.25;100625.46;105996;1275;22534;-81
2022/07/28 03:26:14;;;;;;;7.00;2.80;;;;;;;13.95;60.22;100626.59;106177;1277;25372;-82
2022/07/28 03:28:43;;;;;;;5.00;2.70;;;;;;;13.92;60.63;100626.66;106276;1274;25531;-80
2022/07/28 03:31:12;;;;;;;5.70;3.00;;;;;;;13.97;60.79;100627.63;106288;1274;25292;-81
2022/07/28 03:33:40;;;;;;;5.30;3.00;;;;;;;14.00;60.78;100628.44;106340;1275;26501;-77
2022/07/28 03:36:14;;;;;;;5.30;3.40;;;;;;;14.08;60.71;100636.97;106644;1274;23002;-80
2022/07/28 03:38:50;;;;;;;7.70;3.00;;;;;;;14.16;60.80;100636.64;106424;1274;25258;-79
2022/07/28 03:41:18;;;;;;;7.60;3.00;;;;;;;14.23;60.80;100635.40;105937;1278;24272;-78
2022/07/28 03:43:46;;;;;;;5.00;2.90;;;;;;;14.30;60.66;100640.61;106014;1277;24236;-80
2022/07/28 03:46:13;;;;;;;5.70;2.90;;;;;;;14.33;60.54;100645.48;106230;1278;22702;-80
2022/07/28 03:48:40;;;;;;;8.20;3.00;;;;;;;14.36;60.36;100648.45;106661;1281;23960;-79
2022/07/28 03:51:07;;;;;;;5.50;2.60;;;;;;;14.29;60.10;100650.54;106198;1277;22547;-80
2022/07/28 03:53:35;;;;;;;4.10;2.80;;;;;;;14.15;60.21;100654.01;106176;1277;22878;-77
2022/07/28 03:56:02;;;;;;;10.70;3.60;;;;;;;14.08;60.53;100651.83;105650;1281;24604;-79
2022/07/28 03:58:30;;;;;;;4.80;3.00;;;;;;;14.07;60.69;100657.34;105755;1278;25249;-80
2022/07/28 04:00:57;;;;;;;7.10;3.70;;;;;;;14.07;60.79;100659.45;106144;1274;25449;-82
2022/07/28 04:03:25;;;;;;;9.80;3.20;;;;;;;14.05;60.94;100661.61;105989;1274;22521;-81
2022/07/28 04:06:10;;;;;;;4.80;3.20;;;;;;;13.96;61.01;100658.08;106143;1274;24081;-79
2022/07/28 04:08:36;;;;;;;7.80;3.40;;;;;;;13.90;61.21;100661.56;105859;1274;24365;-81
2022/07/28 04:11:04;;;;;;;7.80;3.30;;;;;;;13.86;61.33;100662.16;106035;1274;22698;-79
2022/07/28 04:13:31;;;;;;;5.80;3.30;;;;;;;13.84;61.63;100663.79;106234;1274;25448;-77
2022/07/28 04:15:59;;;;;;;7.80;3.90;;;;;;;13.86;61.74;100665.88;105981;1277;25601;-80
2022/07/28 04:18:26;;;;;;;6.60;3.80;;;;;;;13.94;61.91;100670.33;106111;1274;25601;-79
2022/07/28 04:20:52;;;;;;;6.20;3.50;;;;;;;14.01;61.81;100665.61;106143;1274;22563;-78
2022/07/28 04:23:21;;;;;;;6.20;2.90;;;;;;;14.07;61.83;100672.21;106142;1274;22776;-76
2022/07/28 04:25:48;;;;;;;8.30;3.70;;;;;;;14.13;61.83;100672.45;105914;1275;22552;-81
2022/07/28 04:28:15;;;;;;;5.00;3.10;;;;;;;14.19;61.49;100673.93;106005;1275;22555;-76
2022/07/28 04:30:42;;;;;;;7.50;3.10;;;;;;;14.17;61.45;100671.88;106014;1274;22550;-78
2022/07/28 04:33:10;;;;;;;6.90;3.50;;;;;;;14.14;61.44;100676.89;105873;1275;22582;-79
2022/07/28 04:35:37;;;;;;;7.50;3.30;;;;;;;14.14;61.40;100675.82;106419;1275;22530;-80
2022/07/28 04:38:04;;;;;;;6.50;3.80;;;;;;;14.15;61.53;100675.80;106985;1274;22496;-77
2022/07/28 04:40:33;;;;;;;6.40;3.70;;;;;;;14.26;61.67;100676.29;107661;1274;22624;-79
2022/07/28 04:43:01;;;;;;;5.80;3.50;;;;;;;14.35;61.47;100678.23;107350;1274;23207;-79
2022/07/28 04:45:28;;;;;;;6.00;3.30;;;;;;;14.42;61.65;100677.56;107264;1274;22544;-78
2022/07/28 04:47:55;;;;;;;5.30;3.30;;;;;;;14.41;61.41;100675.45;107281;1274;22585;-79
2022/07/28 04:50:22;;;;;;;5.70;3.30;;;;;;;14.45;61.59;100674.48;106548;1275;22533;-76
2022/07/28 04:52:58;;;;;;;7.10;3.80;;;;;;;14.49;61.48;100675.64;106383;1274;22566;-79
2022/07/28 04:55:25;;;;;;;5.80;3.70;;;;;;;14.51;61.39;100675.79;105732;1281;23074;-77
2022/07/28 04:57:52;;;;;;;5.10;3.60;;;;;;;14.50;61.25;100673.67;105613;1281;22858;-80
2022/07/28 05:00:20;;;;;;;8.50;3.80;;;;;;;14.50;61.50;100675.27;105344;1282;25260;-79
2022/07/28 05:02:50;;;;;;;7.20;3.90;;;;;;;14.49;61.60;100674.56;105447;1284;25247;-80
2022/07/28 05:05:17;;;;;;;4.30;3.40;;;;;;;14.50;61.69;100673.67;105313;1284;25196;-76
2022/07/28 05:07:44;;;;;;;8.20;4.00;;;;;;;14.51;61.76;100673.31;105194;1284;22577;-79
2022/07/28 05:10:11;;;;;;;8.50;3.60;;;;;;;14.54;61.97;100674.66;105395;1284;22703;-79
2022/07/28 05:12:38;;;;;;;8.70;4.20;;;;;;;14.57;61.85;100680.09;105327;1284;25239;-77
2022/07/28 05:15:06;;;;;;;6.40;3.40;;;;;;;14.62;61.83;100681.92;105231;1284;22563;-80
2022/07/28 05:17:34;;;;;;;7.40;3.50;;;;;;;14.67;61.88;100679.50;105298;1284;22565;-80
2022/07/28 05:20:02;;;;;;;7.00;3.80;;;;;;;14.77;61.80;100683.40;105848;1279;25252;-77
2022/07/28 05:22:43;;;;;;;6.50;3.50;;;;;;;14.87;61.89;100686.05;105765;1279;24531;-79
2022/07/28 05:25:16;;;;;;;6.90;3.80;;;;;;;14.98;61.69;100683.85;105111;1284;25543;-79
2022/07/28 05:27:45;;;;;;;6.60;3.60;;;;;;;15.10;61.54;100684.45;105251;1284;25231;-80
2022/07/28 05:30:14;;;;;;;5.50;4.40;;;;;;;15.19;61.49;100683.02;104700;1287;22550;-79
2022/07/28 05:32:41;;;;;;;6.40;3.30;;;;;;;15.28;61.27;100687.94;104877;1284;22568;-80
2022/07/28 05:35:08;;;;;;;5.10;3.50;;;;;;;15.33;60.67;100690.46;105238;1284;22883;-79
2022/07/28 05:37:36;;;;;;;6.10;3.90;;;;;;;15.39;60.50;100688.73;105015;1285;25440;-80
2022/07/28 05:40:10;;;;;;;6.80;3.50;;;;;;;15.51;60.39;100689.52;105166;1286;22983;-79
2022/07/28 05:42:38;;;;;;;5.50;3.00;;;;;;;15.63;60.19;100695.07;104957;1281;25315;-77
2022/07/28 05:45:07;;;;;;;8.70;3.30;;;;;;;15.69;59.56;100696.00;105746;1279;25379;-78
2022/07/28 05:47:46;;;;;;;6.30;2.60;;;;;;;15.72;59.37;100692.00;105836;1275;25860;-78
2022/07/28 05:50:14;;;;;;;4.40;3.20;;;;;;;15.77;59.13;100695.44;106194;1274;25398;-77
2022/07/28 05:52:41;;;;;;;4.10;3.40;;;;;;;15.83;58.75;100695.47;106964;1274;24256;-75
2022/07/28 05:55:08;;;;;;;5.30;2.90;;;;;;;15.88;58.62;100697.10;106027;1274;22938;-80
2022/07/28 05:57:36;;;;;;;6.40;2.80;;;;;;;15.91;58.38;100698.96;106472;1274;22984;-80
2022/07/28 06:00:17;;;;;;;5.10;2.70;;;;;;;15.96;58.12;100697.61;107249;1274;24298;-80
2022/07/28 06:02:46;;;;;;;8.30;2.70;;;;;;;16.03;58.11;100700.11;106242;1274;22567;-79
2022/07/28 06:05:13;;;;;;;5.30;2.70;;;;;;;16.11;57.98;100705.59;106347;1274;22540;-80
2022/07/28 06:07:40;;;;;;;4.50;2.60;;;;;;;16.17;57.41;100701.52;106290;1274;23854;-79
2022/07/28 06:10:15;;;;;;;6.50;2.70;;;;;;;16.22;57.40;100697.65;106102;1274;24222;-78
2022/07/28 06:12:45;;;;;;;2.70;2.20;;;;;;;16.29;57.13;100698.16;106133;1274;22558;-77
2022/07/28 06:15:19;;;;;;;4.70;2.40;;;;;;;16.37;57.18;100697.60;106333;1274;26694;-81
2022/07/28 06:17:47;;;;;;;6.10;2.20;;;;;;;16.44;56.53;100705.77;106188;1274;22558;-79
2022/07/28 06:20:14;;;;;;;3.40;2.30;;;;;;;16.49;55.22;100705.27;106081;1274;22560;-80
2022/07/28 06:22:43;;;;;;;4.70;1.90;;;;;;;16.53;54.87;100708.16;106301;1274;22722;-81
2022/07/28 06:25:13;;;;;;;7.10;2.20;;;;;;;16.56;54.38;100711.10;106278;1274;25231;-78
2022/07/28 06:27:40;;;;;;;5.40;2.10;;;;;;;16.60;54.43;100708.67;106174;1274;22603;-80
2022/07/28 06:30:08;;;;;;;5.50;2.50;;;;;;;16.62;53.81;100708.96;106090;1274;22528;-79
2022/07/28 06:32:34;;;;;;;3.00;2.20;;;;;;;16.64;53.97;100704.28;106271;1274;24257;-79
2022/07/28 06:35:02;;;;;;;8.00;2.20;;;;;;;16.68;54.02;100704.52;106285;1273;24350;-80
2022/07/28 06:37:29;;;;;;;3.60;2.00;;;;;;;16.73;53.91;100711.83;106022;1274;22740;-80
2022/07/28 06:39:56;;;;;;;4.30;2.00;;;;;;;16.77;53.10;100713.86;105461;1279;22628;-78
2022/07/28 06:42:23;;;;;;;4.30;2.30;;;;;;;16.80;53.09;100714.11;105414;1279;284165;-78
2022/07/28 06:44:51;;;;;;;4.60;2.40;;;;;;;16.87;52.85;100721.94;105631;1279;22796;-82
2022/07/28 06:47:26;;;;;;;6.10;2.30;;;;;;;16.92;53.07;100716.27;105278;1284;24240;-78
2022/07/28 06:49:53;;;;;;;5.10;1.90;;;;;;;16.99;52.34;100720.50;105042;1284;25381;-78
2022/07/28 06:52:20;;;;;;;3.20;1.50;;;;;;;17.03;52.02;100725.36;105450;1284;24284;-80
2022/07/28 06:54:51;;;;;;;11.70;2.90;;;;;;;17.06;51.90;100720.30;105277;1283;25244;-78
2022/07/28 06:57:24;;;;;;;3.10;2.10;;;;;;;17.08;52.05;100723.61;105258;1282;23954;-77
2022/07/28 07:00:05;;;;;;;6.10;1.90;;;;;;;17.13;52.19;100722.95;105903;1277;25416;-81
2022/07/28 07:02:32;;;;;;;4.90;2.20;;;;;;;17.18;52.48;100721.36;105840;1277;24278;-82
2022/07/28 07:04:59;;;;;;;5.10;1.70;;;;;;;17.26;52.23;100724.85;105830;1275;23053;-78
2022/07/28 07:07:26;;;;;;;6.90;1.90;;;;;;;17.33;51.94;100725.19;106364;1273;25248;-78
2022/07/28 07:09:53;;;;;;;4.40;1.60;;;;;;;17.37;51.64;100724.34;106521;1273;22562;-77
2022/07/28 07:12:20;;;;;;;3.00;1.90;;;;;;;17.39;51.59;100729.07;107745;1274;25243;-78
2022/07/28 07:14:47;;;;;;;5.30;1.80;;;;;;;17.41;51.41;100732.02;106173;1273;22545;-79
2022/07/28 07:17:13;;;;;;;2.70;1.60;;;;;;;17.43;51.49;100724.30;106256;1273;22554;-80
2022/07/28 07:19:40;;;;;;;8.50;2.70;;;;;;;17.47;51.53;100726.34;107507;1273;22589;-81
2022/07/28 07:22:07;;;;;;;4.10;1.60;;;;;;;17.50;51.62;100728.56;105775;1278;22544;-79
2022/07/28 07:24:36;;;;;;;3.40;1.90;;;;;;;17.54;51.64;100725.75;106007;1277;23781;-76
2022/07/28 07:27:04;;;;;;;5.80;1.70;;;;;;;17.57;51.33;100726.00;105851;1277;23901;-77
2022/07/28 07:29:31;;;;;;;2.70;1.90;;;;;;;17.62;51.42;100725.33;105705;1278;22528;-80
2022/07/28 07:31:58;;;;;;;3.40;1.70;;;;;;;17.68;51.57;100725.12;105649;1277;22572;-81
2022/07/28 07:34:25;;;;;;;2.80;1.60;;;;;;;17.77;51.80;100725.36;105827;1279;22842;-78
2022/07/28 07:36:52;;;;;;;4.40;1.70;;;;;;;17.86;51.48;100725.25;105944;1277;23962;-78
2022/07/28 07:39:19;;;;;;;4.40;1.50;;;;;;;17.95;50.53;100727.07;105755;1278;24722;-81
2022/07/28 07:41:45;;;;;;;3.10;1.80;;;;;;;17.99;50.26;100718.02;106160;1275;22547;-80
2022/07/28 07:44:12;;;;;;;3.40;1.50;;;;;;;18.03;50.40;100719.29;105999;1274;25448;-78
2022/07/28 07:46:40;;;;;;;4.40;1.90;;;;;;;18.10;50.37;100722.63;105984;1274;22595;-78
2022/07/28 07:49:06;;;;;;;4.80;1.80;;;;;;;18.18;49.90;100728.11;105879;1275;25860;-80
2022/07/28 07:51:33;;;;;;;7.40;2.20;;;;;;;18.23;49.87;100723.96;105914;1275;25763;-81
2022/07/28 07:54:00;;;;;;;3.80;1.80;;;;;;;18.32;49.90;100731.32;106057;1275;26602;-80
2022/07/28 07:56:27;;;;;;;10.30;2.30;;;;;;;18.39;49.86;100726.80;105738;1281;25410;-78
2022/07/28 07:58:54;;;;;;;4.80;2.00;;;;;;;18.48;50.11;100732.38;105667;1279;22661;-79
2022/07/28 08:01:23;;;;;;;3.50;1.90;;;;;;;18.55;49.37;100729.77;105824;1281;25322;-77
2022/07/28 08:03:50;;;;;;;6.10;2.10;;;;;;;18.59;49.34;100729.29;105716;1281;25783;-81
2022/07/28 08:06:19;;;;;;;5.20;1.90;;;;;;;18.71;49.14;100727.58;105558;1279;26533;-77
2022/07/28 08:08:53;;;;;;;4.90;1.60;;;;;;;18.87;49.01;100732.70;105826;1278;24472;-79
2022/07/28 08:11:20;;;;;;;2.30;1.80;;;;;;;19.01;48.20;100737.49;105861;1281;23200;-82
2022/07/28 08:13:47;;;;;;;5.30;2.10;;;;;;;19.11;48.26;100733.39;105672;1278;24298;-78
2022/07/28 08:16:14;;;;;;;2.00;1.40;;;;;;;19.26;48.47;100739.07;106305;1274;25399;-79
2022/07/28 08:18:41;;;;;;;4.10;1.70;;;;;;;19.33;47.25;100744.33;106129;1274;22560;-77
2022/07/28 08:21:08;;;;;;;4.90;1.70;;;;;;;19.32;47.04;100748.64;105641;1281;22769;-81
2022/07/28 08:23:35;;;;;;;4.70;1.70;;;;;;;19.30;47.29;100743.55;105968;1281;23930;-74
2022/07/28 08:26:03;;;;;;;3.10;1.70;;;;;;;19.36;47.36;100737.60;105492;1281;22674;-81
2022/07/28 08:28:30;;;;;;;5.00;1.70;;;;;;;19.44;47.40;100735.13;105780;1281;26599;-81
2022/07/28 08:30:57;;;;;;;3.60;1.60;;;;;;;19.52;46.86;100740.15;105683;1280;24889;-82
2022/07/28 08:33:25;;;;;;;3.20;1.50;;;;;;;19.53;46.37;100740.63;105817;1279;25589;-76
2022/07/28 08:35:52;;;;;;;6.70;1.80;;;;;;;19.54;46.27;100742.75;105908;1281;24218;-78
2022/07/28 08:38:19;;;;;;;3.00;1.50;;;;;;;19.54;46.21;100739.38;105587;1279;22563;-79
2022/07/28 08:40:50;;;;;;;4.70;1.40;;;;;;;19.61;46.39;100738.40;106189;1274;24418;-77
2022/07/28 08:43:38;;;;;;;4.20;1.80;;;;;;;19.70;46.20;100731.95;106223;1274;22561;-77
2022/07/28 08:46:05;;;;;;;4.10;1.30;;;;;;;19.83;46.12;100734.09;106080;1274;22660;-80
2022/07/28 08:48:35;;;;;;;7.20;1.80;;;;;;;19.93;45.78;100735.81;106096;1274;22531;-78
2022/07/28 08:51:06;;;;;;;3.70;1.60;;;;;;;20.02;45.36;100738.11;106361;1274;22574;-79
2022/07/28 08:53:35;;;;;;;2.40;1.40;;;;;;;20.11;44.79;100730.94;106102;1274;22561;-80
2022/07/28 08:56:07;;;;;;;2.80;1.50;;;;;;;20.23;45.15;100726.66;106261;1274;22538;-79
2022/07/28 08:58:37;;;;;;;3.20;1.60;;;;;;;20.45;45.05;100730.91;106213;1274;23929;-79
2022/07/28 09:01:09;;;;;;;5.80;1.40;;;;;;;20.60;44.49;100727.36;106375;1274;22575;-78
2022/07/28 09:03:38;;;;;;;3.20;1.50;;;;;;;20.72;44.31;100728.24;105995;1274;22541;-79
2022/07/28 09:06:06;;;;;;;2.70;1.40;;;;;;;20.78;43.81;100730.80;106051;1275;22649;-78
2022/07/28 09:08:33;;;;;;;3.20;1.60;;;;;;;20.78;43.59;100731.33;105947;1274;25384;-76
2022/07/28 09:11:00;;;;;;;2.90;1.50;;;;;;;20.80;43.92;100737.34;106022;1274;25566;-79
2022/07/28 09:13:27;;;;;;;5.00;1.70;;;;;;;20.86;43.65;100731.17;106060;1274;22850;-78
2022/07/28 09:15:54;;;;;;;2.90;1.40;;;;;;;20.91;43.90;100730.77;106009;1274;24351;-77
2022/07/28 09:18:21;;;;;;;10.00;2.00;;;;;;;20.98;43.98;100734.95;106037;1274;25364;-80
2022/07/28 09:20:48;;;;;;;8.30;1.70;;;;;;;21.16;44.46;100740.54;105706;1279;22804;-77
2022/07/28 09:23:16;;;;;;;5.30;1.80;;;;;;;21.39;43.78;100747.71;105631;1279;22528;-78
2022/07/28 09:26:07;;;;;;;4.40;1.50;;;;;;;21.47;43.18;100741.77;105909;1279;22627;-77
2022/07/28 09:28:48;;;;;;;3.60;1.50;;;;;;;21.48;42.57;100744.38;105734;1279;25237;-75
2022/07/28 09:31:17;;;;;;;4.20;1.80;;;;;;;21.45;41.86;100744.52;105809;1279;22562;-81
2022/07/28 09:33:53;;;;;;;3.40;1.40;;;;;;;21.52;42.38;100742.39;105404;1281;24250;-80
2022/07/28 09:36:21;;;;;;;4.10;1.70;;;;;;;21.74;42.93;100740.61;105246;1282;22566;-81
2022/07/28 09:38:49;;;;;;;4.50;1.60;;;;;;;21.86;41.90;100741.27;105547;1278;22484;-78
2022/07/28 09:41:18;;;;;;;3.10;1.40;;;;;;;21.76;41.04;100741.06;105460;1281;23001;-80
2022/07/28 09:43:45;;;;;;;3.00;1.50;;;;;;;21.66;41.38;100738.86;105688;1278;22667;-78
2022/07/28 09:46:22;;;;;;;2.00;1.20;;;;;;;21.69;42.00;100745.14;105369;1282;25612;-80
2022/07/28 09:48:55;;;;;;;4.00;1.50;;;;;;;21.74;41.61;100736.62;105246;1282;22544;-79
2022/07/28 09:51:28;;;;;;;2.00;1.20;;;;;;;21.80;41.17;100731.73;105522;1279;22687;-77
2022/07/28 09:54:11;;;;;;;3.70;1.20;;;;;;;21.63;40.97;100735.38;105719;1278;25249;-77
2022/07/28 09:56:44;;;;;;;2.70;1.30;;;;;;;21.70;40.65;100739.53;105764;1278;24397;-76
2022/07/28 09:59:12;;;;;;;1.70;1.20;;;;;;;21.72;40.74;100741.42;105789;1278;25320;-79
2022/07/28 10:01:52;;;;;;;3.50;1.10;;;;;;;21.87;40.38;100746.80;105794;1278;24090;-81
2022/07/28 10:04:30;;;;;;;1.20;1.10;;;;;;;21.94;39.49;100742.85;105992;1274;25242;-79
2022/07/28 10:07:05;;;;;;;2.90;1.30;;;;;;;22.00;39.84;100741.67;106062;1275;22551;-80
2022/07/28 10:09:33;;;;;;;1.30;1.20;;;;;;;22.10;39.93;100743.32;106048;1274;22569;-77
2022/07/28 10:12:36;;;;;;;2.00;1.20;;;;;;;22.28;39.98;100739.67;106083;1274;22504;-77
2022/07/28 10:18:00;;;;;;;2.40;1.30;;;;;;;22.48;39.35;100739.32;106451;1274;25299;-78
2022/07/28 10:20:27;;;;;;;1.60;1.10;;;;;;;22.51;39.16;100735.77;106171;1274;24214;-78
2022/07/28 10:23:00;;;;;;;1.80;0.90;;;;;;;22.56;38.94;100732.97;106107;1274;23947;-80
2022/07/28 10:25:29;;;;;;;2.50;1.20;;;;;;;22.61;38.52;100734.35;106203;1274;22589;-78
2022/07/28 10:27:58;;;;;;;1.10;0.90;;;;;;;22.56;38.34;100736.76;106238;1275;25909;-80
2022/07/28 10:30:27;;;;;;;2.40;1.20;;;;;;;22.62;38.66;100731.27;106351;1274;26489;-80
2022/07/28 10:32:57;;;;;;;4.30;1.20;;;;;;;22.78;38.49;100726.81;106405;1274;22559;-78
2022/07/28 10:35:26;;;;;;;2.90;1.10;;;;;;;23.00;38.29;100724.71;106234;1273;25255;-79
2022/07/28 10:38:13;;;;;;;5.80;1.20;;;;;;;23.16;38.12;100732.77;106107;1273;22645;-77
2022/07/28 10:40:44;;;;;;;2.90;1.10;;;;;;;23.25;37.82;100726.18;106129;1273;22650;-78
2022/07/28 10:43:12;;;;;;;1.30;1.00;;;;;;;23.40;37.83;100724.08;106580;1273;22528;-78
2022/07/28 10:45:40;;;;;;;2.70;1.10;;;;;;;23.54;37.67;100725.79;107240;1273;22723;-78
2022/07/28 10:48:27;;;;;;;2.70;1.20;;;;;;;23.69;37.56;100722.39;107347;1273;25376;-77
2022/07/28 10:50:56;;;;;;;2.80;1.00;;;;;;;23.85;37.37;100725.80;107115;1273;22824;-77
2022/07/28 10:53:52;;;;;;;3.10;1.00;;;;;;;23.87;36.77;100723.70;107504;1273;22484;-77
2022/07/28 10:56:47;;;;;;;1.90;1.00;;;;;;;24.06;37.33;100718.11;107679;1273;23079;-77
2022/07/28 10:59:38;;;;;;;2.10;0.90;;;;;;;24.40;36.84;100719.59;107537;1273;23884;-79
2022/07/28 11:02:06;;;;;;;2.50;1.10;;;;;;;24.48;36.10;100719.16;107181;1273;22890;-78
2022/07/28 11:04:39;;;;;;;3.10;1.10;;;;;;;24.52;36.01;100715.61;106556;1274;22561;-79
2022/07/28 11:07:12;;;;;;;4.30;1.20;;;;;;;24.39;35.85;100720.23;106183;1278;22547;-77
2022/07/28 11:09:39;;;;;;;3.10;1.00;;;;;;;24.35;35.71;100719.42;106235;1278;22535;-79
2022/07/28 11:12:06;;;;;;;2.70;1.00;;;;;;;24.43;35.63;100716.77;106328;1279;22587;-77
2022/07/28 11:14:37;;;;;;;1.30;0.90;;;;;;;24.36;36.23;100719.37;105684;1287;25379;-76
2022/07/28 11:17:05;;;;;;;3.10;1.20;;;;;;;24.30;36.41;100714.67;105428;1287;25312;-80
2022/07/28 11:19:42;;;;;;;3.90;1.30;;;;;;;24.10;36.53;100716.39;105514;1287;25392;-79
2022/07/28 11:22:29;;;;;;;3.50;1.00;;;;;;;23.80;36.63;100721.59;105595;1287;22641;-77
2022/07/28 11:24:59;;;;;;;5.60;1.30;;;;;;;23.50;36.69;100719.20;105609;1281;25370;-77
2022/07/28 11:27:49;;;;;;;2.60;0.90;;;;;;;23.57;36.62;100715.90;106013;1281;23783;-78
2022/07/28 11:30:34;;;;;;;5.80;1.20;;;;;;;23.65;36.59;100717.26;106232;1281;25205;-79
2022/07/28 11:33:08;;;;;;;3.50;1.40;;;;;;;23.73;36.56;100717.89;106001;1279;27245;-78
2022/07/28 11:35:37;;;;;;;2.00;0.90;;;;;;;23.83;36.54;100710.30;106043;1279;23962;-80